Fernandina, Florida
Current Conditions -  °F | °C
As of 2:35 PM on Sunday 21 Dec 2014 (Local Time) from KFHB Reporting Station
Overcast Overcast  
Wind Chill: 63°   Ceiling: 400
Heat Index: 63°   Visibility: 4mi
Dew Point: 59°   Wind: 17mph
Humidity: 88%   Direction: 40°NE
Pressure: 30.04"   Gusts: NA
Location:  30.6697°N, 81.4629°W
Report Text: KFHB 211935Z AUTO 04015KT 4SM OVC004 17/15 A3004 RMK AO1 LTG DSNT SW
Loading
Personal Weather Stations






























Interactive Weather Map New forecast layout! Learn more

10-Day Weather Forecast

Advertisements
Track Severe Weather on mobile